sensor_id;sensor_type;location;lat;lon;timestamp;pressure;altitude;pressure_sealevel;temperature;humidity
30021;BME280;16861;52.294;7.760;2022-11-04T00:01:50;98158.09;;;14.33;62.33
30021;BME280;16861;52.294;7.760;2022-11-04T00:04:19;98159.75;;;14.34;62.50
30021;BME280;16861;52.294;7.760;2022-11-04T00:06:46;98157.81;;;14.36;62.56
30021;BME280;16861;52.294;7.760;2022-11-04T00:09:21;98167.84;;;14.32;63.79
30021;BME280;16861;52.294;7.760;2022-11-04T00:11:48;98160.59;;;14.35;62.58
30021;BME280;16861;52.294;7.760;2022-11-04T00:14:34;98168.69;;;14.33;62.65
30021;BME280;16861;52.294;7.760;2022-11-04T00:17:01;98175.13;;;14.30;62.71
30021;BME280;16861;52.294;7.760;2022-11-04T00:19:53;98177.38;;;14.25;63.83
30021;BME280;16861;52.294;7.760;2022-11-04T00:22:40;98169.59;;;14.24;62.87
30021;BME280;16861;52.294;7.760;2022-11-04T00:25:25;98191.06;;;14.20;62.86
30021;BME280;16861;52.294;7.760;2022-11-04T00:28:13;98217.81;;;14.17;63.38
30021;BME280;16861;52.294;7.760;2022-11-04T00:30:59;98225.88;;;14.16;63.16
30021;BME280;16861;52.294;7.760;2022-11-04T00:33:45;98220.06;;;14.12;62.90
30021;BME280;16861;52.294;7.760;2022-11-04T00:36:12;98236.41;;;14.07;62.50
30021;BME280;16861;52.294;7.760;2022-11-04T00:38:38;98243.94;;;14.02;62.68
30021;BME280;16861;52.294;7.760;2022-11-04T00:41:05;98238.25;;;13.97;62.64
30021;BME280;16861;52.294;7.760;2022-11-04T00:43:55;98259.19;;;13.90;63.06
30021;BME280;16861;52.294;7.760;2022-11-04T00:46:22;98241.94;;;13.86;62.57
30021;BME280;16861;52.294;7.760;2022-11-04T00:48:49;98246.69;;;13.83;62.77
30021;BME280;16861;52.294;7.760;2022-11-04T00:51:15;98251.41;;;13.79;62.92
30021;BME280;16861;52.294;7.760;2022-11-04T00:53:41;98243.78;;;13.76;62.84
30021;BME280;16861;52.294;7.760;2022-11-04T00:56:08;98239.78;;;13.72;62.72
30021;BME280;16861;52.294;7.760;2022-11-04T00:58:35;98228.63;;;13.68;62.60
30021;BME280;16861;52.294;7.760;2022-11-04T01:01:15;98237.31;;;13.60;63.48
30021;BME280;16861;52.294;7.760;2022-11-04T01:03:47;98257.47;;;13.61;62.79
30021;BME280;16861;52.294;7.760;2022-11-04T01:06:14;98274.44;;;13.59;62.83
30021;BME280;16861;52.294;7.760;2022-11-04T01:08:40;98276.56;;;13.55;62.64
30021;BME280;16861;52.294;7.760;2022-11-04T01:11:08;98283.81;;;13.53;62.60
30021;BME280;16861;52.294;7.760;2022-11-04T01:13:35;98289.50;;;13.48;62.70
30021;BME280;16861;52.294;7.760;2022-11-04T01:16:04;98295.03;;;13.45;62.71
30021;BME280;16861;52.294;7.760;2022-11-04T01:18:31;98283.09;;;13.41;62.71
30021;BME280;16861;52.294;7.760;2022-11-04T01:21:02;98293.13;;;13.37;63.11
30021;BME280;16861;52.294;7.760;2022-11-04T01:23:29;98315.25;;;13.36;62.57
30021;BME280;16861;52.294;7.760;2022-11-04T01:25:56;98298.69;;;13.34;62.40
30021;BME280;16861;52.294;7.760;2022-11-04T01:28:22;98288.41;;;13.31;62.58
30021;BME280;16861;52.294;7.760;2022-11-04T01:30:48;98283.41;;;13.28;62.55
30021;BME280;16861;52.294;7.760;2022-11-04T01:33:15;98295.09;;;13.25;62.66
30021;BME280;16861;52.294;7.760;2022-11-04T01:35:42;98290.75;;;13.24;62.47
30021;BME280;16861;52.294;7.760;2022-11-04T01:38:08;98297.16;;;13.22;62.48
30021;BME280;16861;52.294;7.760;2022-11-04T01:40:36;98303.69;;;13.18;62.67
30021;BME280;16861;52.294;7.760;2022-11-04T01:43:16;98310.09;;;13.15;62.98
30021;BME280;16861;52.294;7.760;2022-11-04T01:45:46;98314.56;;;13.14;62.76
30021;BME280;16861;52.294;7.760;2022-11-04T01:48:40;98327.34;;;13.09;63.73
30021;BME280;16861;52.294;7.760;2022-11-04T01:51:06;98323.44;;;13.13;62.93
30021;BME280;16861;52.294;7.760;2022-11-04T01:53:38;98323.88;;;13.09;63.64
30021;BME280;16861;52.294;7.760;2022-11-04T01:56:07;98319.41;;;13.09;63.20
30021;BME280;16861;52.294;7.760;2022-11-04T01:58:48;98331.09;;;13.07;64.03
30021;BME280;16861;52.294;7.760;2022-11-04T02:01:16;98329.97;;;13.09;63.07
30021;BME280;16861;52.294;7.760;2022-11-04T02:03:52;98339.88;;;13.07;63.90
30021;BME280;16861;52.294;7.760;2022-11-04T02:06:21;98327.34;;;13.09;63.14
30021;BME280;16861;52.294;7.760;2022-11-04T02:08:48;98322.91;;;13.10;63.38
30021;BME280;16861;52.294;7.760;2022-11-04T02:11:15;98342.25;;;13.10;63.49
30021;BME280;16861;52.294;7.760;2022-11-04T02:14:01;98341.25;;;13.11;63.43
30021;BME280;16861;52.294;7.760;2022-11-04T02:16:42;98342.50;;;13.07;64.52
30021;BME280;16861;52.294;7.760;2022-11-04T02:22:16;98359.34;;;13.06;64.52
30021;BME280;16861;52.294;7.760;2022-11-04T02:25:04;98360.03;;;13.08;64.08
30021;BME280;16861;52.294;7.760;2022-11-04T02:30:15;98363.50;;;13.09;64.10
30021;BME280;16861;52.294;7.760;2022-11-04T02:35:25;98369.63;;;13.09;64.30
30021;BME280;16861;52.294;7.760;2022-11-04T02:46:15;98365.59;;;13.15;63.54
30021;BME280;16861;52.294;7.760;2022-11-04T02:48:53;98371.16;;;13.12;64.22
30021;BME280;16861;52.294;7.760;2022-11-04T02:51:38;98372.97;;;13.11;64.06
30021;BME280;16861;52.294;7.760;2022-11-04T02:56:50;98386.84;;;13.13;63.77
30021;BME280;16861;52.294;7.760;2022-11-04T02:59:25;98397.44;;;13.13;63.83
30021;BME280;16861;52.294;7.760;2022-11-04T03:01:55;98390.22;;;13.15;63.25
30021;BME280;16861;52.294;7.760;2022-11-04T03:04:27;98386.84;;;13.13;63.67
30021;BME280;16861;52.294;7.760;2022-11-04T03:06:56;98396.47;;;13.14;63.36
30021;BME280;16861;52.294;7.760;2022-11-04T03:09:26;98399.25;;;13.13;63.30
30021;BME280;16861;52.294;7.760;2022-11-04T03:11:57;98398.41;;;13.12;63.33
30021;BME280;16861;52.294;7.760;2022-11-04T03:14:34;98393.25;;;13.11;63.09
30021;BME280;16861;52.294;7.760;2022-11-04T03:17:04;98390.75;;;13.09;62.74
30021;BME280;16861;52.294;7.760;2022-11-04T03:19:51;98387.56;;;13.06;62.54
30021;BME280;16861;52.294;7.760;2022-11-04T03:22:21;98392.97;;;13.04;62.12
30021;BME280;16861;52.294;7.760;2022-11-04T03:24:49;98382.00;;;12.99;62.03
30021;BME280;16861;52.294;7.760;2022-11-04T03:27:46;98396.03;;;12.89;62.32
30021;BME280;16861;52.294;7.760;2022-11-04T03:30:17;98397.00;;;12.88;61.99
30021;BME280;16861;52.294;7.760;2022-11-04T03:35:11;98406.81;;;12.76;61.82
30021;BME280;16861;52.294;7.760;2022-11-04T03:37:38;98404.72;;;12.70;61.93
30021;BME280;16861;52.294;7.760;2022-11-04T03:40:05;98420.16;;;12.65;61.89
30021;BME280;16861;52.294;7.760;2022-11-04T03:42:36;98423.31;;;12.59;62.22
30021;BME280;16861;52.294;7.760;2022-11-04T03:45:03;98433.16;;;12.57;62.30
30021;BME280;16861;52.294;7.760;2022-11-04T03:47:30;98443.16;;;12.53;62.50
30021;BME280;16861;52.294;7.760;2022-11-04T03:50:25;98441.03;;;12.47;63.23
30021;BME280;16861;52.294;7.760;2022-11-04T03:52:53;98446.06;;;12.50;62.70
30021;BME280;16861;52.294;7.760;2022-11-04T03:55:23;98454.97;;;12.49;62.73
30021;BME280;16861;52.294;7.760;2022-11-04T03:58:03;98451.47;;;12.48;62.98
30021;BME280;16861;52.294;7.760;2022-11-04T04:00:36;98446.19;;;12.48;62.79
30021;BME280;16861;52.294;7.760;2022-11-04T04:03:14;98453.00;;;12.51;62.60
30021;BME280;16861;52.294;7.760;2022-11-04T04:06:15;98449.22;;;12.44;63.35
30021;BME280;16861;52.294;7.760;2022-11-04T04:08:58;98453.56;;;12.45;63.15
30021;BME280;16861;52.294;7.760;2022-11-04T04:11:46;98463.38;;;12.43;63.35
30021;BME280;16861;52.294;7.760;2022-11-04T04:14:30;98457.41;;;12.41;63.10
30021;BME280;16861;52.294;7.760;2022-11-04T04:17:14;98461.72;;;12.42;63.01
30021;BME280;16861;52.294;7.760;2022-11-04T04:19:53;98465.34;;;12.41;63.15
30021;BME280;16861;52.294;7.760;2022-11-04T04:22:23;98469.63;;;12.42;62.72
30021;BME280;16861;52.294;7.760;2022-11-04T04:24:53;98476.59;;;12.43;62.98
30021;BME280;16861;52.294;7.760;2022-11-04T04:27:41;98478.25;;;12.44;63.00
30021;BME280;16861;52.294;7.760;2022-11-04T04:30:13;98480.19;;;12.42;63.24
30021;BME280;16861;52.294;7.760;2022-11-04T04:32:48;98479.09;;;12.44;63.15
30021;BME280;16861;52.294;7.760;2022-11-04T04:35:16;98485.78;;;12.48;62.97
30021;BME280;16861;52.294;7.760;2022-11-04T04:38:22;98485.66;;;12.50;62.80
30021;BME280;16861;52.294;7.760;2022-11-04T04:43:56;98498.59;;;12.53;62.88
30021;BME280;16861;52.294;7.760;2022-11-04T04:46:43;98501.25;;;12.53;62.63
30021;BME280;16861;52.294;7.760;2022-11-04T04:49:10;98501.06;;;12.55;62.58
30021;BME280;16861;52.294;7.760;2022-11-04T04:51:43;98499.41;;;12.54;62.91
30021;BME280;16861;52.294;7.760;2022-11-04T04:54:10;98502.78;;;12.56;62.85
30021;BME280;16861;52.294;7.760;2022-11-04T04:56:37;98512.34;;;12.57;62.81
30021;BME280;16861;52.294;7.760;2022-11-04T04:59:03;98507.94;;;12.57;62.84
30021;BME280;16861;52.294;7.760;2022-11-04T05:01:30;98507.94;;;12.57;62.69
30021;BME280;16861;52.294;7.760;2022-11-04T05:03:57;98514.75;;;12.60;62.72
30021;BME280;16861;52.294;7.760;2022-11-04T05:06:24;98511.13;;;12.61;62.59
30021;BME280;16861;52.294;7.760;2022-11-04T05:08:50;98527.09;;;12.59;62.44
30021;BME280;16861;52.294;7.760;2022-11-04T05:11:16;98525.44;;;12.58;62.43
30021;BME280;16861;52.294;7.760;2022-11-04T05:13:49;98530.72;;;12.58;62.78
30021;BME280;16861;52.294;7.760;2022-11-04T05:16:15;98529.72;;;12.59;62.62
30021;BME280;16861;52.294;7.760;2022-11-04T05:18:42;98535.00;;;12.59;62.72
30021;BME280;16861;52.294;7.760;2022-11-04T05:21:13;98537.66;;;12.59;62.67
30021;BME280;16861;52.294;7.760;2022-11-04T05:23:39;98548.09;;;12.61;62.45
30021;BME280;16861;52.294;7.760;2022-11-04T05:26:06;98544.59;;;12.60;62.67
30021;BME280;16861;52.294;7.760;2022-11-04T05:28:32;98551.56;;;12.61;62.45
30021;BME280;16861;52.294;7.760;2022-11-04T05:31:03;98555.16;;;12.60;62.66
30021;BME280;16861;52.294;7.760;2022-11-04T05:33:30;98553.25;;;12.62;62.41
30021;BME280;16861;52.294;7.760;2022-11-04T05:36:10;98566.69;;;12.59;62.70
30021;BME280;16861;52.294;7.760;2022-11-04T05:38:37;98573.38;;;12.63;62.34
30021;BME280;16861;52.294;7.760;2022-11-04T05:41:04;98583.25;;;12.61;62.31
30021;BME280;16861;52.294;7.760;2022-11-04T05:43:32;98581.31;;;12.63;62.24
30021;BME280;16861;52.294;7.760;2022-11-04T05:45:59;98578.78;;;12.62;61.99
30021;BME280;16861;52.294;7.760;2022-11-04T05:48:26;98581.56;;;12.60;62.15
30021;BME280;16861;52.294;7.760;2022-11-04T05:50:53;98575.59;;;12.58;62.18
30021;BME280;16861;52.294;7.760;2022-11-04T05:53:20;98579.19;;;12.57;62.17
30021;BME280;16861;52.294;7.760;2022-11-04T05:55:46;98582.78;;;12.56;62.09
30021;BME280;16861;52.294;7.760;2022-11-04T05:58:13;98583.75;;;12.55;62.15
30021;BME280;16861;52.294;7.760;2022-11-04T06:00:39;98587.38;;;12.54;62.15
30021;BME280;16861;52.294;7.760;2022-11-04T06:03:05;98587.50;;;12.53;62.05
30021;BME280;16861;52.294;7.760;2022-11-04T06:05:37;98599.84;;;12.52;61.89
30021;BME280;16861;52.294;7.760;2022-11-04T06:08:03;98597.34;;;12.50;61.96
30021;BME280;16861;52.294;7.760;2022-11-04T06:10:30;98611.50;;;12.49;61.90
30021;BME280;16861;52.294;7.760;2022-11-04T06:12:56;98621.38;;;12.47;62.00
30021;BME280;16861;52.294;7.760;2022-11-04T06:15:23;98626.75;;;12.46;62.05
30021;BME280;16861;52.294;7.760;2022-11-04T06:17:49;98626.75;;;12.46;62.17
30021;BME280;16861;52.294;7.760;2022-11-04T06:20:15;98630.38;;;12.45;62.10
30021;BME280;16861;52.294;7.760;2022-11-04T06:22:42;98634.69;;;12.46;62.21
30021;BME280;16861;52.294;7.760;2022-11-04T06:25:08;98644.38;;;12.45;62.24
30021;BME280;16861;52.294;7.760;2022-11-04T06:27:35;98648.72;;;12.46;62.28
30021;BME280;16861;52.294;7.760;2022-11-04T06:30:01;98652.19;;;12.47;62.14
30021;BME280;16861;52.294;7.760;2022-11-04T06:32:27;98650.53;;;12.46;62.19
30021;BME280;16861;52.294;7.760;2022-11-04T06:34:54;98658.44;;;12.46;62.16
30021;BME280;16861;52.294;7.760;2022-11-04T06:37:20;98650.53;;;12.46;62.23
30021;BME280;16861;52.294;7.760;2022-11-04T06:39:47;98661.06;;;12.46;62.17
30021;BME280;16861;52.294;7.760;2022-11-04T06:42:13;98658.44;;;12.46;62.39
30021;BME280;16861;52.294;7.760;2022-11-04T06:44:39;98663.97;;;12.43;62.28
30021;BME280;16861;52.294;7.760;2022-11-04T06:47:06;98669.25;;;12.43;62.26
30021;BME280;16861;52.294;7.760;2022-11-04T06:49:33;98657.00;;;12.42;62.28
30021;BME280;16861;52.294;7.760;2022-11-04T06:51:59;98673.69;;;12.42;62.32
30021;BME280;16861;52.294;7.760;2022-11-04T06:54:27;98668.53;;;12.41;62.20
30021;BME280;16861;52.294;7.760;2022-11-04T06:56:53;98680.06;;;12.40;62.26
30021;BME280;16861;52.294;7.760;2022-11-04T06:59:20;98681.00;;;12.38;62.31
30021;BME280;16861;52.294;7.760;2022-11-04T07:01:48;98685.47;;;12.38;62.64
30021;BME280;16861;52.294;7.760;2022-11-04T07:04:15;98687.97;;;12.40;62.54
30021;BME280;16861;52.294;7.760;2022-11-04T07:06:42;98687.97;;;12.40;62.51
30021;BME280;16861;52.294;7.760;2022-11-04T07:09:12;98689.91;;;12.37;62.52
30021;BME280;16861;52.294;7.760;2022-11-04T07:11:40;98708.13;;;12.41;62.39
30021;BME280;16861;52.294;7.760;2022-11-04T07:14:07;98711.59;;;12.41;62.44
30021;BME280;16861;52.294;7.760;2022-11-04T07:16:34;98708.94;;;12.41;62.62
30021;BME280;16861;52.294;7.760;2022-11-04T07:19:00;98715.06;;;12.42;62.57
30021;BME280;16861;52.294;7.760;2022-11-04T07:21:27;98711.47;;;12.43;62.48
30021;BME280;16861;52.294;7.760;2022-11-04T07:23:54;98721.06;;;12.44;62.59
30021;BME280;16861;52.294;7.760;2022-11-04T07:26:20;98717.47;;;12.45;62.64
30021;BME280;16861;52.294;7.760;2022-11-04T07:28:47;98718.28;;;12.45;62.76
30021;BME280;16861;52.294;7.760;2022-11-04T07:31:14;98721.78;;;12.46;62.40
30021;BME280;16861;52.294;7.760;2022-11-04T07:33:40;98726.09;;;12.47;62.38
30021;BME280;16861;52.294;7.760;2022-11-04T07:36:11;98733.31;;;12.45;62.53
30021;BME280;16861;52.294;7.760;2022-11-04T07:38:38;98727.91;;;12.46;62.34
30021;BME280;16861;52.294;7.760;2022-11-04T07:41:04;98725.50;;;12.43;62.28
30021;BME280;16861;52.294;7.760;2022-11-04T07:43:31;98725.63;;;12.42;62.09
30021;BME280;16861;52.294;7.760;2022-11-04T07:46:02;98719.03;;;12.36;62.58
30021;BME280;16861;52.294;7.760;2022-11-04T07:48:29;98718.22;;;12.35;62.30
30021;BME280;16861;52.294;7.760;2022-11-04T07:50:58;98728.16;;;12.32;62.69
30021;BME280;16861;52.294;7.760;2022-11-04T07:53:26;98731.66;;;12.32;62.44
30021;BME280;16861;52.294;7.760;2022-11-04T07:55:53;98730.00;;;12.31;62.56
30021;BME280;16861;52.294;7.760;2022-11-04T07:58:21;98736.22;;;12.30;62.61
30021;BME280;16861;52.294;7.760;2022-11-04T08:00:48;98745.09;;;12.29;62.70
30021;BME280;16861;52.294;7.760;2022-11-04T08:03:14;98750.38;;;12.29;62.88
30021;BME280;16861;52.294;7.760;2022-11-04T08:05:41;98760.94;;;12.29;62.78
30021;BME280;16861;52.294;7.760;2022-11-04T08:08:07;98762.59;;;12.30;62.84
30021;BME280;16861;52.294;7.760;2022-11-04T08:10:34;98765.13;;;12.32;62.79
30021;BME280;16861;52.294;7.760;2022-11-04T08:13:01;98773.88;;;12.32;62.79
30021;BME280;16861;52.294;7.760;2022-11-04T08:15:27;98778.19;;;12.33;62.87
30021;BME280;16861;52.294;7.760;2022-11-04T08:17:54;98774.47;;;12.36;62.75
30021;BME280;16861;52.294;7.760;2022-11-04T08:20:20;98784.06;;;12.37;62.81
30021;BME280;16861;52.294;7.760;2022-11-04T08:22:47;98781.28;;;12.38;62.76
30021;BME280;16861;52.294;7.760;2022-11-04T08:25:13;98771.47;;;12.41;63.05
30021;BME280;16861;52.294;7.760;2022-11-04T08:27:39;98770.25;;;12.45;63.14
30021;BME280;16861;52.294;7.760;2022-11-04T08:30:06;98773.47;;;12.48;63.05
30021;BME280;16861;52.294;7.760;2022-11-04T08:32:33;98780.31;;;12.51;62.92
30021;BME280;16861;52.294;7.760;2022-11-04T08:35:00;98782.72;;;12.54;62.69
30021;BME280;16861;52.294;7.760;2022-11-04T08:37:26;98789.66;;;12.55;62.70
30021;BME280;16861;52.294;7.760;2022-11-04T08:39:53;98803.44;;;12.59;62.83
30021;BME280;16861;52.294;7.760;2022-11-04T08:42:19;98797.09;;;12.61;63.12
30021;BME280;16861;52.294;7.760;2022-11-04T08:44:50;98800.31;;;12.65;63.73
30021;BME280;16861;52.294;7.760;2022-11-04T08:47:17;98792.50;;;12.75;63.71
30021;BME280;16861;52.294;7.760;2022-11-04T08:49:43;98796.03;;;12.85;63.57
30021;BME280;16861;52.294;7.760;2022-11-04T08:52:09;98792.63;;;12.95;63.59
30021;BME280;16861;52.294;7.760;2022-11-04T08:54:36;98791.88;;;13.04;63.35
30021;BME280;16861;52.294;7.760;2022-11-04T08:57:02;98793.75;;;13.13;62.91
30021;BME280;16861;52.294;7.760;2022-11-04T08:59:29;98800.19;;;13.21;62.65
30021;BME280;16861;52.294;7.760;2022-11-04T09:01:55;98805.94;;;13.26;62.31
30021;BME280;16861;52.294;7.760;2022-11-04T09:04:22;98808.31;;;13.29;62.29
30021;BME280;16861;52.294;7.760;2022-11-04T09:06:49;98811.69;;;13.31;62.15
30021;BME280;16861;52.294;7.760;2022-11-04T09:09:17;98811.53;;;13.33;62.19
30021;BME280;16861;52.294;7.760;2022-11-04T09:11:44;98824.63;;;13.34;61.84
30021;BME280;16861;52.294;7.760;2022-11-04T09:14:11;98826.44;;;13.34;61.63
30021;BME280;16861;52.294;7.760;2022-11-04T09:16:39;98826.44;;;13.34;61.86
30021;BME280;16861;52.294;7.760;2022-11-04T09:19:06;98829.09;;;13.34;61.85
30021;BME280;16861;52.294;7.760;2022-11-04T09:21:33;98829.91;;;13.34;61.76
30021;BME280;16861;52.294;7.760;2022-11-04T09:23:59;98826.31;;;13.35;61.96
30021;BME280;16861;52.294;7.760;2022-11-04T09:26:25;98840.94;;;13.39;62.16
30021;BME280;16861;52.294;7.760;2022-11-04T09:28:54;98839.72;;;13.43;62.21
30021;BME280;16861;52.294;7.760;2022-11-04T09:31:21;98842.72;;;13.50;61.98
30021;BME280;16861;52.294;7.760;2022-11-04T09:33:48;98844.00;;;13.56;62.04
30021;BME280;16861;52.294;7.760;2022-11-04T09:36:15;98827.63;;;13.62;61.83
30021;BME280;16861;52.294;7.760;2022-11-04T09:38:42;98826.25;;;13.68;61.51
30021;BME280;16861;52.294;7.760;2022-11-04T09:46:54;98806.69;;;13.80;60.80
30021;BME280;16861;52.294;7.760;2022-11-04T09:49:23;98808.38;;;13.81;61.09
30021;BME280;16861;52.294;7.760;2022-11-04T09:51:53;98818.69;;;13.85;61.00
30021;BME280;16861;52.294;7.760;2022-11-04T09:54:37;98830.97;;;13.86;60.89
30021;BME280;16861;52.294;7.760;2022-11-04T09:57:15;98827.22;;;13.88;60.64
30021;BME280;16861;52.294;7.760;2022-11-04T09:59:42;98825.25;;;13.90;60.39
30021;BME280;16861;52.294;7.760;2022-11-04T10:04:51;98822.63;;;13.90;60.67
30021;BME280;16861;52.294;7.760;2022-11-04T10:12:55;98840.69;;;14.16;61.12
30021;BME280;16861;52.294;7.760;2022-11-04T10:23:44;98845.81;;;14.49;59.88
30021;BME280;16861;52.294;7.760;2022-11-04T10:29:04;98853.19;;;14.55;59.35
30021;BME280;16861;52.294;7.760;2022-11-04T10:31:35;98851.41;;;14.56;59.21
30021;BME280;16861;52.294;7.760;2022-11-04T10:34:14;98851.53;;;14.54;nan
30021;BME280;16861;52.294;7.760;2022-11-04T10:36:47;98853.91;;;14.57;59.47
30021;BME280;16861;52.294;7.760;2022-11-04T10:39:29;98859.34;;;14.56;59.39
30021;BME280;16861;52.294;7.760;2022-11-04T10:41:56;98857.13;;;14.61;59.74
30021;BME280;16861;52.294;7.760;2022-11-04T10:44:31;98855.44;;;14.60;59.20
30021;BME280;16861;52.294;7.760;2022-11-04T10:52:37;98865.34;;;14.68;59.53
30021;BME280;16861;52.294;7.760;2022-11-04T10:55:18;98873.19;;;14.69;59.67
30021;BME280;16861;52.294;7.760;2022-11-04T10:57:55;98871.72;;;14.87;61.22
30021;BME280;16861;52.294;7.760;2022-11-04T11:00:39;98872.00;;;15.03;60.70
30021;BME280;16861;52.294;7.760;2022-11-04T11:03:30;98878.84;;;15.26;60.08
30021;BME280;16861;52.294;7.760;2022-11-04T11:06:13;98884.28;;;15.44;59.43
30021;BME280;16861;52.294;7.760;2022-11-04T11:08:41;98880.22;;;15.59;59.38
30021;BME280;16861;52.294;7.760;2022-11-04T11:11:08;98884.38;;;15.72;59.41
30021;BME280;16861;52.294;7.760;2022-11-04T11:13:40;98893.00;;;15.84;58.93
30021;BME280;16861;52.294;7.760;2022-11-04T11:16:19;98884.22;;;15.93;58.25
30021;BME280;16861;52.294;7.760;2022-11-04T11:21:48;98893.81;;;16.14;58.13
30021;BME280;16861;52.294;7.760;2022-11-04T11:24:26;98896.13;;;16.37;59.29
30021;BME280;16861;52.294;7.760;2022-11-04T11:26:58;98904.03;;;16.75;60.13
30021;BME280;16861;52.294;7.760;2022-11-04T11:29:29;98897.50;;;17.15;58.32
30021;BME280;16861;52.294;7.760;2022-11-04T11:31:58;98896.16;;;17.56;58.38
30021;BME280;16861;52.294;7.760;2022-11-04T11:34:30;98897.28;;;17.98;57.30
30021;BME280;16861;52.294;7.760;2022-11-04T11:36:59;98899.25;;;18.49;59.03
30021;BME280;16861;52.294;7.760;2022-11-04T11:39:30;98891.28;;;19.09;58.22
30021;BME280;16861;52.294;7.760;2022-11-04T11:42:06;98891.50;;;19.65;54.22
30021;BME280;16861;52.294;7.760;2022-11-04T11:44:41;98901.31;;;20.07;52.38
30021;BME280;16861;52.294;7.760;2022-11-04T11:50:14;98883.84;;;20.36;51.16
30021;BME280;16861;52.294;7.760;2022-11-04T11:52:42;98890.16;;;20.43;50.79
30021;BME280;16861;52.294;7.760;2022-11-04T11:55:17;98892.88;;;20.35;49.37
30021;BME280;16861;52.294;7.760;2022-11-04T12:00:45;98903.44;;;20.20;48.91
30021;BME280;16861;52.294;7.760;2022-11-04T12:03:32;98916.16;;;19.92;48.42
30021;BME280;16861;52.294;7.760;2022-11-04T12:13:06;98917.72;;;18.85;49.38
30021;BME280;16861;52.294;7.760;2022-11-04T12:18:55;98909.72;;;18.94;51.77
30021;BME280;16861;52.294;7.760;2022-11-04T12:21:25;98908.31;;;19.24;53.62
30021;BME280;16861;52.294;7.760;2022-11-04T12:27:01;98908.31;;;20.08;50.59
30021;BME280;16861;52.294;7.760;2022-11-04T12:30:06;98906.94;;;20.28;49.78
30021;BME280;16861;52.294;7.760;2022-11-04T12:44:32;98915.16;;;19.85;48.89
30021;BME280;16861;52.294;7.760;2022-11-04T12:47:28;98911.84;;;19.50;48.56
30021;BME280;16861;52.294;7.760;2022-11-04T12:50:20;98924.34;;;19.24;48.57
30021;BME280;16861;52.294;7.760;2022-11-04T12:55:35;98912.38;;;18.77;48.55
30021;BME280;16861;52.294;7.760;2022-11-04T13:01:04;98920.09;;;18.19;48.92
30021;BME280;16861;52.294;7.760;2022-11-04T13:04:08;98924.84;;;17.89;49.78
30021;BME280;16861;52.294;7.760;2022-11-04T13:11:58;98925.38;;;17.48;50.36
30021;BME280;16861;52.294;7.760;2022-11-04T13:14:29;98918.00;;;17.41;50.80
30021;BME280;16861;52.294;7.760;2022-11-04T13:17:05;98931.75;;;17.37;50.88
30021;BME280;16861;52.294;7.760;2022-11-04T13:19:42;98936.13;;;17.38;51.06
30021;BME280;16861;52.294;7.760;2022-11-04T13:22:36;98932.47;;;17.39;51.03
30021;BME280;16861;52.294;7.760;2022-11-04T13:25:05;98932.16;;;17.42;51.82
30021;BME280;16861;52.294;7.760;2022-11-04T13:27:37;98941.34;;;17.48;51.83
30021;BME280;16861;52.294;7.760;2022-11-04T13:32:53;98938.44;;;17.59;51.50
30021;BME280;16861;52.294;7.760;2022-11-04T13:35:48;98950.09;;;17.58;51.12
30021;BME280;16861;52.294;7.760;2022-11-04T13:38:23;98955.13;;;17.61;50.44
30021;BME280;16861;52.294;7.760;2022-11-04T13:41:32;98951.00;;;17.49;50.59
30021;BME280;16861;52.294;7.760;2022-11-04T13:44:13;98969.69;;;17.39;50.24
30021;BME280;16861;52.294;7.760;2022-11-04T13:46:48;98977.34;;;17.24;50.31
30021;BME280;16861;52.294;7.760;2022-11-04T13:49:34;98980.09;;;17.04;50.60
30021;BME280;16861;52.294;7.760;2022-11-04T13:52:06;98981.00;;;16.94;50.66
30021;BME280;16861;52.294;7.760;2022-11-04T13:54:51;98973.81;;;16.77;50.82
30021;BME280;16861;52.294;7.760;2022-11-04T13:57:26;98980.47;;;16.63;51.08
30021;BME280;16861;52.294;7.760;2022-11-04T14:02:54;98992.53;;;16.37;52.04
30021;BME280;16861;52.294;7.760;2022-11-04T14:16:06;99018.97;;;17.15;51.80
30021;BME280;16861;52.294;7.760;2022-11-04T14:18:36;99010.84;;;17.16;51.17
30021;BME280;16861;52.294;7.760;2022-11-04T14:21:17;99015.41;;;17.06;51.21
30021;BME280;16861;52.294;7.760;2022-11-04T14:23:49;99017.06;;;16.97;50.84
30021;BME280;16861;52.294;7.760;2022-11-04T14:26:19;99021.75;;;16.85;51.01
30021;BME280;16861;52.294;7.760;2022-11-04T14:28:58;99025.72;;;16.71;51.21
30021;BME280;16861;52.294;7.760;2022-11-04T14:31:36;99021.88;;;16.56;51.56
30021;BME280;16861;52.294;7.760;2022-11-04T14:34:05;99026.78;;;16.50;51.66
30021;BME280;16861;52.294;7.760;2022-11-04T14:36:39;99019.09;;;16.37;52.20
30021;BME280;16861;52.294;7.760;2022-11-04T14:39:28;99024.16;;;16.31;52.05
30021;BME280;16861;52.294;7.760;2022-11-04T14:44:35;99047.66;;;16.25;52.67
30021;BME280;16861;52.294;7.760;2022-11-04T14:48:55;99057.16;;;16.18;52.46
30021;BME280;16861;52.294;7.760;2022-11-04T14:51:27;99061.91;;;16.14;52.48
30021;BME280;16861;52.294;7.760;2022-11-04T14:54:09;99060.53;;;16.10;52.36
30021;BME280;16861;52.294;7.760;2022-11-04T15:01:58;99068.13;;;15.54;53.05
30021;BME280;16861;52.294;7.760;2022-11-04T15:04:27;99069.81;;;15.45;53.24
30021;BME280;16861;52.294;7.760;2022-11-04T15:06:56;99078.59;;;15.46;53.25
30021;BME280;16861;52.294;7.760;2022-11-04T15:09:30;99084.88;;;15.45;53.16
30021;BME280;16861;52.294;7.760;2022-11-04T15:12:13;99094.06;;;15.41;53.37
30021;BME280;16861;52.294;7.760;2022-11-04T15:14:58;99091.28;;;15.42;53.12
30021;BME280;16861;52.294;7.760;2022-11-04T15:17:31;99093.50;;;15.37;53.13
30021;BME280;16861;52.294;7.760;2022-11-04T15:19:59;99098.94;;;15.35;52.99
30021;BME280;16861;52.294;7.760;2022-11-04T15:22:28;99098.34;;;15.32;53.04
30021;BME280;16861;52.294;7.760;2022-11-04T15:24:57;99104.22;;;15.26;53.03
30021;BME280;16861;52.294;7.760;2022-11-04T15:27:28;99103.78;;;15.20;52.96
30021;BME280;16861;52.294;7.760;2022-11-04T15:30:00;99111.56;;;15.12;53.03
30021;BME280;16861;52.294;7.760;2022-11-04T15:32:28;99109.28;;;15.07;53.06